sensor_id;sensor_type;location;lat;lon;timestamp;P1;durP1;ratioP1;P2;durP2;ratioP2
29240;SDS011;16268;49.880;8.648;2022-07-24T00:00:41;6.43;;;3.95;;
29240;SDS011;16268;49.880;8.648;2022-07-24T00:03:07;11.02;;;4.45;;
29240;SDS011;16268;49.880;8.648;2022-07-24T00:05:33;8.20;;;4.18;;
29240;SDS011;16268;49.880;8.648;2022-07-24T00:07:58;6.40;;;4.05;;
29240;SDS011;16268;49.880;8.648;2022-07-24T00:10:24;6.85;;;4.25;;
29240;SDS011;16268;49.880;8.648;2022-07-24T00:12:50;9.25;;;3.90;;
29240;SDS011;16268;49.880;8.648;2022-07-24T00:15:15;7.40;;;3.75;;
29240;SDS011;16268;49.880;8.648;2022-07-24T00:17:41;7.07;;;3.80;;
29240;SDS011;16268;49.880;8.648;2022-07-24T00:20:07;8.82;;;4.05;;
29240;SDS011;16268;49.880;8.648;2022-07-24T00:22:34;8.63;;;3.53;;
29240;SDS011;16268;49.880;8.648;2022-07-24T00:25:00;6.25;;;3.92;;
29240;SDS011;16268;49.880;8.648;2022-07-24T00:27:26;8.32;;;4.10;;
29240;SDS011;16268;49.880;8.648;2022-07-24T00:29:52;6.13;;;4.00;;
29240;SDS011;16268;49.880;8.648;2022-07-24T00:32:17;7.60;;;4.07;;
29240;SDS011;16268;49.880;8.648;2022-07-24T00:34:43;6.18;;;3.72;;
29240;SDS011;16268;49.880;8.648;2022-07-24T00:37:08;8.55;;;3.97;;
29240;SDS011;16268;49.880;8.648;2022-07-24T00:39:34;6.88;;;3.85;;
29240;SDS011;16268;49.880;8.648;2022-07-24T00:42:00;5.82;;;4.05;;
29240;SDS011;16268;49.880;8.648;2022-07-24T00:44:25;6.40;;;3.97;;
29240;SDS011;16268;49.880;8.648;2022-07-24T00:46:51;6.53;;;3.53;;
29240;SDS011;16268;49.880;8.648;2022-07-24T00:49:17;4.80;;;3.45;;
29240;SDS011;16268;49.880;8.648;2022-07-24T00:51:45;5.97;;;3.80;;
29240;SDS011;16268;49.880;8.648;2022-07-24T00:54:12;7.22;;;3.75;;
29240;SDS011;16268;49.880;8.648;2022-07-24T00:56:40;7.43;;;4.07;;
29240;SDS011;16268;49.880;8.648;2022-07-24T00:59:07;6.15;;;3.67;;
29240;SDS011;16268;49.880;8.648;2022-07-24T01:01:33;7.18;;;3.83;;
29240;SDS011;16268;49.880;8.648;2022-07-24T01:03:58;5.75;;;3.90;;
29240;SDS011;16268;49.880;8.648;2022-07-24T01:06:24;6.10;;;3.70;;
29240;SDS011;16268;49.880;8.648;2022-07-24T01:08:50;8.00;;;4.00;;
29240;SDS011;16268;49.880;8.648;2022-07-24T01:11:16;10.25;;;3.90;;
29240;SDS011;16268;49.880;8.648;2022-07-24T01:13:44;8.25;;;4.18;;
29240;SDS011;16268;49.880;8.648;2022-07-24T01:16:11;5.28;;;3.00;;
29240;SDS011;16268;49.880;8.648;2022-07-24T01:18:37;6.03;;;4.35;;
29240;SDS011;16268;49.880;8.648;2022-07-24T01:21:03;8.13;;;4.10;;
29240;SDS011;16268;49.880;8.648;2022-07-24T01:23:30;5.97;;;3.50;;
29240;SDS011;16268;49.880;8.648;2022-07-24T01:25:55;5.88;;;3.67;;
29240;SDS011;16268;49.880;8.648;2022-07-24T01:28:22;6.07;;;3.90;;
29240;SDS011;16268;49.880;8.648;2022-07-24T01:30:47;6.30;;;3.65;;
29240;SDS011;16268;49.880;8.648;2022-07-24T01:33:13;7.38;;;3.83;;
29240;SDS011;16268;49.880;8.648;2022-07-24T01:35:40;5.32;;;3.38;;
29240;SDS011;16268;49.880;8.648;2022-07-24T01:38:06;4.90;;;3.40;;
29240;SDS011;16268;49.880;8.648;2022-07-24T01:40:32;6.15;;;3.90;;
29240;SDS011;16268;49.880;8.648;2022-07-24T01:42:58;5.65;;;3.40;;
29240;SDS011;16268;49.880;8.648;2022-07-24T01:45:23;6.40;;;3.95;;
29240;SDS011;16268;49.880;8.648;2022-07-24T01:47:49;7.28;;;3.72;;
29240;SDS011;16268;49.880;8.648;2022-07-24T01:50:14;10.30;;;3.60;;
29240;SDS011;16268;49.880;8.648;2022-07-24T01:52:40;4.57;;;3.28;;
29240;SDS011;16268;49.880;8.648;2022-07-24T01:55:05;6.35;;;3.78;;
29240;SDS011;16268;49.880;8.648;2022-07-24T01:57:32;5.63;;;3.80;;
29240;SDS011;16268;49.880;8.648;2022-07-24T01:59:58;8.65;;;3.70;;
29240;SDS011;16268;49.880;8.648;2022-07-24T02:02:25;6.70;;;3.78;;
29240;SDS011;16268;49.880;8.648;2022-07-24T02:04:52;8.50;;;3.75;;
29240;SDS011;16268;49.880;8.648;2022-07-24T02:07:18;6.47;;;4.00;;
29240;SDS011;16268;49.880;8.648;2022-07-24T02:09:43;6.70;;;3.72;;
29240;SDS011;16268;49.880;8.648;2022-07-24T02:12:09;6.18;;;3.17;;
29240;SDS011;16268;49.880;8.648;2022-07-24T02:14:34;8.63;;;3.80;;
29240;SDS011;16268;49.880;8.648;2022-07-24T02:17:00;6.68;;;3.70;;
29240;SDS011;16268;49.880;8.648;2022-07-24T02:19:25;7.95;;;3.88;;
29240;SDS011;16268;49.880;8.648;2022-07-24T02:21:51;6.28;;;3.80;;
29240;SDS011;16268;49.880;8.648;2022-07-24T02:24:17;6.13;;;3.63;;
29240;SDS011;16268;49.880;8.648;2022-07-24T02:26:42;5.30;;;3.67;;
29240;SDS011;16268;49.880;8.648;2022-07-24T02:29:08;6.38;;;3.70;;
29240;SDS011;16268;49.880;8.648;2022-07-24T02:31:33;5.38;;;3.63;;
29240;SDS011;16268;49.880;8.648;2022-07-24T02:33:59;6.82;;;4.20;;
29240;SDS011;16268;49.880;8.648;2022-07-24T02:36:25;6.85;;;4.13;;
29240;SDS011;16268;49.880;8.648;2022-07-24T02:38:50;7.57;;;3.70;;
29240;SDS011;16268;49.880;8.648;2022-07-24T02:41:16;7.70;;;3.80;;
29240;SDS011;16268;49.880;8.648;2022-07-24T02:43:42;5.55;;;3.85;;
29240;SDS011;16268;49.880;8.648;2022-07-24T02:46:08;6.20;;;4.00;;
29240;SDS011;16268;49.880;8.648;2022-07-24T02:48:33;6.68;;;4.20;;
29240;SDS011;16268;49.880;8.648;2022-07-24T02:50:59;6.43;;;3.97;;
29240;SDS011;16268;49.880;8.648;2022-07-24T02:53:24;6.78;;;4.03;;
29240;SDS011;16268;49.880;8.648;2022-07-24T02:55:50;6.70;;;4.03;;
29240;SDS011;16268;49.880;8.648;2022-07-24T02:58:15;7.68;;;4.38;;
29240;SDS011;16268;49.880;8.648;2022-07-24T03:00:41;5.68;;;4.03;;
29240;SDS011;16268;49.880;8.648;2022-07-24T03:03:06;5.90;;;4.05;;
29240;SDS011;16268;49.880;8.648;2022-07-24T03:05:32;6.18;;;4.32;;
29240;SDS011;16268;49.880;8.648;2022-07-24T03:07:58;6.93;;;4.55;;
29240;SDS011;16268;49.880;8.648;2022-07-24T03:10:23;5.38;;;3.90;;
29240;SDS011;16268;49.880;8.648;2022-07-24T03:12:49;7.40;;;4.55;;
29240;SDS011;16268;49.880;8.648;2022-07-24T03:15:15;6.00;;;4.18;;
29240;SDS011;16268;49.880;8.648;2022-07-24T03:17:48;6.45;;;4.25;;
29240;SDS011;16268;49.880;8.648;2022-07-24T03:20:17;5.80;;;4.25;;
29240;SDS011;16268;49.880;8.648;2022-07-24T03:22:44;7.45;;;4.40;;
29240;SDS011;16268;49.880;8.648;2022-07-24T03:25:10;6.75;;;4.30;;
29240;SDS011;16268;49.880;8.648;2022-07-24T03:27:36;8.80;;;4.07;;
29240;SDS011;16268;49.880;8.648;2022-07-24T03:30:03;6.28;;;4.28;;
29240;SDS011;16268;49.880;8.648;2022-07-24T03:32:29;7.53;;;4.40;;
29240;SDS011;16268;49.880;8.648;2022-07-24T03:34:55;6.25;;;4.13;;
29240;SDS011;16268;49.880;8.648;2022-07-24T03:37:21;6.32;;;4.20;;
29240;SDS011;16268;49.880;8.648;2022-07-24T03:39:46;7.45;;;4.60;;
29240;SDS011;16268;49.880;8.648;2022-07-24T03:42:12;6.55;;;4.53;;
29240;SDS011;16268;49.880;8.648;2022-07-24T03:44:37;6.25;;;4.00;;
29240;SDS011;16268;49.880;8.648;2022-07-24T03:47:03;8.23;;;4.57;;
29240;SDS011;16268;49.880;8.648;2022-07-24T03:49:29;7.00;;;4.45;;
29240;SDS011;16268;49.880;8.648;2022-07-24T03:51:54;8.25;;;4.38;;
29240;SDS011;16268;49.880;8.648;2022-07-24T03:54:20;8.13;;;4.32;;
29240;SDS011;16268;49.880;8.648;2022-07-24T03:56:46;6.35;;;4.20;;
29240;SDS011;16268;49.880;8.648;2022-07-24T03:59:12;6.20;;;4.20;;
29240;SDS011;16268;49.880;8.648;2022-07-24T04:01:38;6.32;;;3.95;;
29240;SDS011;16268;49.880;8.648;2022-07-24T04:04:04;8.00;;;4.35;;
29240;SDS011;16268;49.880;8.648;2022-07-24T04:06:30;8.38;;;4.20;;
29240;SDS011;16268;49.880;8.648;2022-07-24T04:08:57;5.95;;;3.95;;
29240;SDS011;16268;49.880;8.648;2022-07-24T04:11:23;6.32;;;4.13;;
29240;SDS011;16268;49.880;8.648;2022-07-24T04:13:48;7.50;;;4.50;;
29240;SDS011;16268;49.880;8.648;2022-07-24T04:16:14;6.35;;;4.60;;
29240;SDS011;16268;49.880;8.648;2022-07-24T04:18:40;6.40;;;4.13;;
29240;SDS011;16268;49.880;8.648;2022-07-24T04:21:05;8.05;;;4.50;;
29240;SDS011;16268;49.880;8.648;2022-07-24T04:23:31;8.48;;;4.57;;
29240;SDS011;16268;49.880;8.648;2022-07-24T04:25:56;7.85;;;4.43;;
29240;SDS011;16268;49.880;8.648;2022-07-24T04:28:22;8.95;;;4.70;;
29240;SDS011;16268;49.880;8.648;2022-07-24T04:30:48;7.03;;;4.25;;
29240;SDS011;16268;49.880;8.648;2022-07-24T04:33:13;6.57;;;4.30;;
29240;SDS011;16268;49.880;8.648;2022-07-24T04:35:39;6.50;;;4.40;;
29240;SDS011;16268;49.880;8.648;2022-07-24T04:38:04;6.45;;;4.35;;
29240;SDS011;16268;49.880;8.648;2022-07-24T04:40:30;6.38;;;4.72;;
29240;SDS011;16268;49.880;8.648;2022-07-24T04:42:55;7.75;;;4.78;;
29240;SDS011;16268;49.880;8.648;2022-07-24T04:45:21;7.18;;;4.60;;
29240;SDS011;16268;49.880;8.648;2022-07-24T04:47:46;7.60;;;4.53;;
29240;SDS011;16268;49.880;8.648;2022-07-24T04:50:12;6.53;;;4.70;;
29240;SDS011;16268;49.880;8.648;2022-07-24T04:52:37;6.40;;;4.78;;
29240;SDS011;16268;49.880;8.648;2022-07-24T04:55:03;7.68;;;4.93;;
29240;SDS011;16268;49.880;8.648;2022-07-24T04:57:29;7.28;;;4.90;;
29240;SDS011;16268;49.880;8.648;2022-07-24T04:59:55;9.00;;;5.03;;
29240;SDS011;16268;49.880;8.648;2022-07-24T05:02:20;7.80;;;5.30;;
29240;SDS011;16268;49.880;8.648;2022-07-24T05:04:46;6.50;;;4.65;;
29240;SDS011;16268;49.880;8.648;2022-07-24T05:07:11;7.45;;;4.90;;
29240;SDS011;16268;49.880;8.648;2022-07-24T05:09:37;8.43;;;4.70;;
29240;SDS011;16268;49.880;8.648;2022-07-24T05:12:02;8.15;;;5.00;;
29240;SDS011;16268;49.880;8.648;2022-07-24T05:14:28;7.03;;;4.65;;
29240;SDS011;16268;49.880;8.648;2022-07-24T05:16:53;9.00;;;5.28;;
29240;SDS011;16268;49.880;8.648;2022-07-24T05:19:19;8.20;;;4.80;;
29240;SDS011;16268;49.880;8.648;2022-07-24T05:21:44;6.25;;;4.57;;
29240;SDS011;16268;49.880;8.648;2022-07-24T05:24:10;7.82;;;4.90;;
29240;SDS011;16268;49.880;8.648;2022-07-24T05:26:36;6.57;;;5.03;;
29240;SDS011;16268;49.880;8.648;2022-07-24T05:29:02;7.35;;;4.88;;
29240;SDS011;16268;49.880;8.648;2022-07-24T05:31:30;6.95;;;5.07;;
29240;SDS011;16268;49.880;8.648;2022-07-24T05:33:56;7.82;;;4.80;;
29240;SDS011;16268;49.880;8.648;2022-07-24T05:36:23;6.75;;;4.70;;
29240;SDS011;16268;49.880;8.648;2022-07-24T05:38:49;7.13;;;5.15;;
29240;SDS011;16268;49.880;8.648;2022-07-24T05:41:15;7.65;;;4.80;;
29240;SDS011;16268;49.880;8.648;2022-07-24T05:43:40;7.25;;;4.78;;
29240;SDS011;16268;49.880;8.648;2022-07-24T05:46:06;7.55;;;4.60;;
29240;SDS011;16268;49.880;8.648;2022-07-24T05:48:32;7.18;;;4.70;;
29240;SDS011;16268;49.880;8.648;2022-07-24T05:50:57;6.90;;;4.15;;
29240;SDS011;16268;49.880;8.648;2022-07-24T05:53:23;6.03;;;4.18;;
29240;SDS011;16268;49.880;8.648;2022-07-24T05:55:49;5.47;;;3.95;;
29240;SDS011;16268;49.880;8.648;2022-07-24T05:58:15;5.88;;;3.80;;
29240;SDS011;16268;49.880;8.648;2022-07-24T06:00:41;6.70;;;4.10;;
29240;SDS011;16268;49.880;8.648;2022-07-24T06:03:07;5.70;;;3.90;;
29240;SDS011;16268;49.880;8.648;2022-07-24T06:05:33;5.78;;;4.07;;
29240;SDS011;16268;49.880;8.648;2022-07-24T06:07:58;7.70;;;4.53;;
29240;SDS011;16268;49.880;8.648;2022-07-24T06:10:24;8.07;;;4.28;;
29240;SDS011;16268;49.880;8.648;2022-07-24T06:12:50;6.07;;;3.97;;
29240;SDS011;16268;49.880;8.648;2022-07-24T06:15:15;6.22;;;4.35;;
29240;SDS011;16268;49.880;8.648;2022-07-24T06:17:41;6.43;;;4.32;;
29240;SDS011;16268;49.880;8.648;2022-07-24T06:20:07;5.55;;;3.83;;
29240;SDS011;16268;49.880;8.648;2022-07-24T06:22:35;7.70;;;4.20;;
29240;SDS011;16268;49.880;8.648;2022-07-24T06:25:00;5.57;;;3.95;;
29240;SDS011;16268;49.880;8.648;2022-07-24T06:27:26;6.22;;;4.15;;
29240;SDS011;16268;49.880;8.648;2022-07-24T06:29:51;7.20;;;4.20;;
29240;SDS011;16268;49.880;8.648;2022-07-24T06:32:17;7.10;;;3.85;;
29240;SDS011;16268;49.880;8.648;2022-07-24T06:34:42;5.88;;;4.30;;
29240;SDS011;16268;49.880;8.648;2022-07-24T06:37:08;5.97;;;4.30;;
29240;SDS011;16268;49.880;8.648;2022-07-24T06:39:34;5.68;;;3.95;;
29240;SDS011;16268;49.880;8.648;2022-07-24T06:41:59;5.47;;;3.83;;
29240;SDS011;16268;49.880;8.648;2022-07-24T06:44:25;5.32;;;4.20;;
29240;SDS011;16268;49.880;8.648;2022-07-24T06:46:50;6.30;;;4.25;;
29240;SDS011;16268;49.880;8.648;2022-07-24T06:49:16;6.43;;;4.00;;
29240;SDS011;16268;49.880;8.648;2022-07-24T06:51:41;7.18;;;4.25;;
29240;SDS011;16268;49.880;8.648;2022-07-24T06:54:07;6.72;;;4.00;;
29240;SDS011;16268;49.880;8.648;2022-07-24T06:56:32;5.68;;;4.25;;
29240;SDS011;16268;49.880;8.648;2022-07-24T06:58:58;6.28;;;3.92;;
29240;SDS011;16268;49.880;8.648;2022-07-24T07:01:24;6.43;;;4.10;;
29240;SDS011;16268;49.880;8.648;2022-07-24T07:03:51;5.78;;;4.35;;
29240;SDS011;16268;49.880;8.648;2022-07-24T07:06:18;7.57;;;4.07;;
29240;SDS011;16268;49.880;8.648;2022-07-24T07:08:43;6.07;;;3.80;;
29240;SDS011;16268;49.880;8.648;2022-07-24T07:11:09;5.07;;;3.35;;
29240;SDS011;16268;49.880;8.648;2022-07-24T07:13:34;5.35;;;3.53;;
29240;SDS011;16268;49.880;8.648;2022-07-24T07:16:00;7.13;;;3.53;;
29240;SDS011;16268;49.880;8.648;2022-07-24T07:18:25;5.43;;;3.45;;
29240;SDS011;16268;49.880;8.648;2022-07-24T07:20:51;5.10;;;3.35;;
29240;SDS011;16268;49.880;8.648;2022-07-24T07:23:20;4.68;;;3.40;;
29240;SDS011;16268;49.880;8.648;2022-07-24T07:25:47;4.60;;;3.25;;
29240;SDS011;16268;49.880;8.648;2022-07-24T07:28:12;4.97;;;3.17;;
29240;SDS011;16268;49.880;8.648;2022-07-24T07:30:38;4.72;;;3.20;;
29240;SDS011;16268;49.880;8.648;2022-07-24T07:33:03;6.18;;;3.47;;
29240;SDS011;16268;49.880;8.648;2022-07-24T07:35:29;4.88;;;3.28;;
29240;SDS011;16268;49.880;8.648;2022-07-24T07:37:54;5.97;;;3.30;;
29240;SDS011;16268;49.880;8.648;2022-07-24T07:40:20;4.45;;;3.10;;
29240;SDS011;16268;49.880;8.648;2022-07-24T07:42:45;5.05;;;3.20;;
29240;SDS011;16268;49.880;8.648;2022-07-24T07:45:11;4.95;;;2.95;;
29240;SDS011;16268;49.880;8.648;2022-07-24T07:47:37;6.05;;;3.35;;
29240;SDS011;16268;49.880;8.648;2022-07-24T07:50:02;5.05;;;3.33;;
29240;SDS011;16268;49.880;8.648;2022-07-24T07:52:29;4.65;;;3.22;;
29240;SDS011;16268;49.880;8.648;2022-07-24T07:54:54;4.97;;;3.42;;
29240;SDS011;16268;49.880;8.648;2022-07-24T07:57:20;5.00;;;3.05;;
29240;SDS011;16268;49.880;8.648;2022-07-24T07:59:46;5.43;;;3.20;;
29240;SDS011;16268;49.880;8.648;2022-07-24T08:02:11;4.80;;;3.20;;
29240;SDS011;16268;49.880;8.648;2022-07-24T08:04:37;4.25;;;3.05;;
29240;SDS011;16268;49.880;8.648;2022-07-24T08:07:02;4.43;;;3.00;;
29240;SDS011;16268;49.880;8.648;2022-07-24T08:09:28;4.80;;;3.28;;
29240;SDS011;16268;49.880;8.648;2022-07-24T08:11:53;4.65;;;3.30;;
29240;SDS011;16268;49.880;8.648;2022-07-24T08:14:19;4.05;;;2.97;;
29240;SDS011;16268;49.880;8.648;2022-07-24T08:16:44;4.13;;;2.78;;
29240;SDS011;16268;49.880;8.648;2022-07-24T08:19:10;5.25;;;3.20;;
29240;SDS011;16268;49.880;8.648;2022-07-24T08:21:35;5.05;;;3.15;;
29240;SDS011;16268;49.880;8.648;2022-07-24T08:24:01;4.60;;;3.00;;
29240;SDS011;16268;49.880;8.648;2022-07-24T08:26:27;4.90;;;3.47;;
29240;SDS011;16268;49.880;8.648;2022-07-24T08:28:55;5.00;;;3.30;;
29240;SDS011;16268;49.880;8.648;2022-07-24T08:31:23;5.68;;;3.47;;
29240;SDS011;16268;49.880;8.648;2022-07-24T08:33:50;5.32;;;3.25;;
29240;SDS011;16268;49.880;8.648;2022-07-24T08:36:15;5.68;;;3.47;;
29240;SDS011;16268;49.880;8.648;2022-07-24T08:38:41;4.32;;;3.38;;
29240;SDS011;16268;49.880;8.648;2022-07-24T08:41:07;4.90;;;3.25;;
29240;SDS011;16268;49.880;8.648;2022-07-24T08:43:32;4.72;;;3.10;;
29240;SDS011;16268;49.880;8.648;2022-07-24T08:45:58;5.53;;;3.25;;
29240;SDS011;16268;49.880;8.648;2022-07-24T08:48:25;5.82;;;3.40;;
29240;SDS011;16268;49.880;8.648;2022-07-24T08:50:52;4.50;;;3.38;;
29240;SDS011;16268;49.880;8.648;2022-07-24T08:53:19;6.70;;;3.60;;
29240;SDS011;16268;49.880;8.648;2022-07-24T08:55:46;5.00;;;3.25;;
29240;SDS011;16268;49.880;8.648;2022-07-24T08:58:12;4.78;;;3.38;;
29240;SDS011;16268;49.880;8.648;2022-07-24T09:00:38;7.65;;;3.53;;
29240;SDS011;16268;49.880;8.648;2022-07-24T09:03:03;6.22;;;3.50;;
29240;SDS011;16268;49.880;8.648;2022-07-24T09:05:29;5.88;;;3.58;;
29240;SDS011;16268;49.880;8.648;2022-07-24T09:08:07;4.97;;;3.40;;
29240;SDS011;16268;49.880;8.648;2022-07-24T09:10:34;6.22;;;3.80;;
29240;SDS011;16268;49.880;8.648;2022-07-24T09:12:59;5.70;;;3.72;;
29240;SDS011;16268;49.880;8.648;2022-07-24T09:15:44;6.05;;;3.60;;
29240;SDS011;16268;49.880;8.648;2022-07-24T09:18:24;4.95;;;3.33;;
29240;SDS011;16268;49.880;8.648;2022-07-24T09:20:54;4.82;;;3.40;;
29240;SDS011;16268;49.880;8.648;2022-07-24T09:23:20;5.97;;;3.70;;
29240;SDS011;16268;49.880;8.648;2022-07-24T09:25:52;6.57;;;3.60;;
29240;SDS011;16268;49.880;8.648;2022-07-24T09:28:19;5.30;;;3.58;;
29240;SDS011;16268;49.880;8.648;2022-07-24T09:30:46;5.20;;;3.60;;
29240;SDS011;16268;49.880;8.648;2022-07-24T09:38:09;5.28;;;3.53;;
29240;SDS011;16268;49.880;8.648;2022-07-24T09:40:37;5.32;;;3.38;;
29240;SDS011;16268;49.880;8.648;2022-07-24T09:43:38;4.60;;;3.30;;
29240;SDS011;16268;49.880;8.648;2022-07-24T09:50:53;7.25;;;3.92;;
29240;SDS011;16268;49.880;8.648;2022-07-24T09:53:21;6.33;;;3.50;;
29240;SDS011;16268;49.880;8.648;2022-07-24T09:56:00;5.45;;;3.60;;
29240;SDS011;16268;49.880;8.648;2022-07-24T09:58:26;6.18;;;3.30;;
29240;SDS011;16268;49.880;8.648;2022-07-24T10:00:53;5.28;;;3.40;;
29240;SDS011;16268;49.880;8.648;2022-07-24T10:03:23;6.65;;;3.83;;
29240;SDS011;16268;49.880;8.648;2022-07-24T10:05:50;5.65;;;3.53;;
29240;SDS011;16268;49.880;8.648;2022-07-24T10:08:20;5.15;;;3.60;;
29240;SDS011;16268;49.880;8.648;2022-07-24T10:10:46;5.30;;;3.80;;
29240;SDS011;16268;49.880;8.648;2022-07-24T10:13:14;6.50;;;4.30;;
29240;SDS011;16268;49.880;8.648;2022-07-24T10:15:49;5.45;;;3.97;;
29240;SDS011;16268;49.880;8.648;2022-07-24T10:19:14;5.65;;;4.22;;
29240;SDS011;16268;49.880;8.648;2022-07-24T10:21:25;5.95;;;4.07;;
29240;SDS011;16268;49.880;8.648;2022-07-24T10:26:41;6.13;;;4.28;;
29240;SDS011;16268;49.880;8.648;2022-07-24T10:29:10;7.15;;;4.15;;
29240;SDS011;16268;49.880;8.648;2022-07-24T10:34:13;6.60;;;4.22;;
29240;SDS011;16268;49.880;8.648;2022-07-24T10:42:07;5.40;;;4.35;;
29240;SDS011;16268;49.880;8.648;2022-07-24T10:44:33;5.32;;;4.20;;
29240;SDS011;16268;49.880;8.648;2022-07-24T10:47:02;5.93;;;4.28;;
29240;SDS011;16268;49.880;8.648;2022-07-24T10:52:04;7.00;;;4.25;;
29240;SDS011;16268;49.880;8.648;2022-07-24T10:54:30;6.05;;;4.20;;
29240;SDS011;16268;49.880;8.648;2022-07-24T10:56:55;5.57;;;4.18;;
29240;SDS011;16268;49.880;8.648;2022-07-24T10:59:32;6.70;;;4.40;;
29240;SDS011;16268;49.880;8.648;2022-07-24T11:01:58;6.22;;;4.22;;
29240;SDS011;16268;49.880;8.648;2022-07-24T11:10:53;6.47;;;4.28;;
29240;SDS011;16268;49.880;8.648;2022-07-24T11:19:23;7.75;;;4.93;;
29240;SDS011;16268;49.880;8.648;2022-07-24T11:21:31;6.32;;;4.60;;
29240;SDS011;16268;49.880;8.648;2022-07-24T11:26:47;6.10;;;4.72;;
29240;SDS011;16268;49.880;8.648;2022-07-24T11:31:50;7.65;;;4.80;;
29240;SDS011;16268;49.880;8.648;2022-07-24T11:34:19;6.50;;;5.20;;
29240;SDS011;16268;49.880;8.648;2022-07-24T11:36:45;7.28;;;5.10;;
29240;SDS011;16268;49.880;8.648;2022-07-24T11:39:16;6.63;;;4.90;;
29240;SDS011;16268;49.880;8.648;2022-07-24T11:41:50;7.55;;;4.70;;
29240;SDS011;16268;49.880;8.648;2022-07-24T11:46:55;6.68;;;4.68;;
29240;SDS011;16268;49.880;8.648;2022-07-24T11:49:43;6.47;;;5.40;;
29240;SDS011;16268;49.880;8.648;2022-07-24T11:52:21;7.85;;;5.03;;
29240;SDS011;16268;49.880;8.648;2022-07-24T11:55:10;6.53;;;5.32;;
29240;SDS011;16268;49.880;8.648;2022-07-24T11:57:37;6.40;;;4.97;;
29240;SDS011;16268;49.880;8.648;2022-07-24T12:00:07;7.80;;;5.30;;
29240;SDS011;16268;49.880;8.648;2022-07-24T12:02:46;7.32;;;5.03;;
29240;SDS011;16268;49.880;8.648;2022-07-24T12:05:12;6.43;;;5.15;;
29240;SDS011;16268;49.880;8.648;2022-07-24T12:07:47;6.95;;;5.03;;
29240;SDS011;16268;49.880;8.648;2022-07-24T12:10:13;6.00;;;4.55;;
29240;SDS011;16268;49.880;8.648;2022-07-24T12:12:45;5.90;;;4.25;;
29240;SDS011;16268;49.880;8.648;2022-07-24T12:15:13;5.53;;;3.75;;
29240;SDS011;16268;49.880;8.648;2022-07-24T12:17:52;5.93;;;4.10;;
29240;SDS011;16268;49.880;8.648;2022-07-24T12:20:29;6.47;;;4.18;;
29240;SDS011;16268;49.880;8.648;2022-07-24T12:22:55;5.75;;;4.20;;
29240;SDS011;16268;49.880;8.648;2022-07-24T12:25:22;6.35;;;4.38;;
29240;SDS011;16268;49.880;8.648;2022-07-24T12:27:49;6.90;;;4.70;;
29240;SDS011;16268;49.880;8.648;2022-07-24T12:32:58;6.20;;;4.05;;
29240;SDS011;16268;49.880;8.648;2022-07-24T12:35:32;6.22;;;4.53;;
29240;SDS011;16268;49.880;8.648;2022-07-24T12:38:28;6.22;;;4.40;;
29240;SDS011;16268;49.880;8.648;2022-07-24T12:41:02;6.03;;;4.50;;
29240;SDS011;16268;49.880;8.648;2022-07-24T12:43:28;7.35;;;4.90;;
29240;SDS011;16268;49.880;8.648;2022-07-24T12:46:04;6.32;;;4.53;;
29240;SDS011;16268;49.880;8.648;2022-07-24T12:48:34;6.90;;;4.60;;
29240;SDS011;16268;49.880;8.648;2022-07-24T12:51:09;7.90;;;5.20;;
29240;SDS011;16268;49.880;8.648;2022-07-24T12:53:40;8.45;;;4.78;;
29240;SDS011;16268;49.880;8.648;2022-07-24T12:56:08;6.40;;;5.00;;
29240;SDS011;16268;49.880;8.648;2022-07-24T13:01:18;5.75;;;4.55;;
29240;SDS011;16268;49.880;8.648;2022-07-24T13:03:52;6.60;;;4.43;;
29240;SDS011;16268;49.880;8.648;2022-07-24T13:06:23;6.47;;;4.53;;
29240;SDS011;16268;49.880;8.648;2022-07-24T13:08:56;5.85;;;4.78;;
29240;SDS011;16268;49.880;8.648;2022-07-24T13:11:21;6.93;;;4.68;;
29240;SDS011;16268;49.880;8.648;2022-07-24T13:13:47;5.68;;;4.28;;
29240;SDS011;16268;49.880;8.648;2022-07-24T13:16:12;6.28;;;4.40;;
29240;SDS011;16268;49.880;8.648;2022-07-24T13:18:38;6.32;;;3.97;;
29240;SDS011;16268;49.880;8.648;2022-07-24T13:21:04;5.45;;;4.07;;
29240;SDS011;16268;49.880;8.648;2022-07-24T13:23:29;6.00;;;4.35;;
29240;SDS011;16268;49.880;8.648;2022-07-24T13:25:55;5.03;;;3.97;;
29240;SDS011;16268;49.880;8.648;2022-07-24T13:28:21;6.28;;;4.10;;
29240;SDS011;16268;49.880;8.648;2022-07-24T13:30:48;4.88;;;3.80;;
29240;SDS011;16268;49.880;8.648;2022-07-24T13:33:13;5.85;;;4.55;;
29240;SDS011;16268;49.880;8.648;2022-07-24T13:35:39;5.45;;;4.00;;
29240;SDS011;16268;49.880;8.648;2022-07-24T13:38:05;5.45;;;4.03;;
29240;SDS011;16268;49.880;8.648;2022-07-24T13:40:31;6.40;;;4.60;;
29240;SDS011;16268;49.880;8.648;2022-07-24T13:42:56;5.97;;;4.30;;
29240;SDS011;16268;49.880;8.648;2022-07-24T13:45:22;8.13;;;4.65;;
29240;SDS011;16268;49.880;8.648;2022-07-24T13:47:47;6.38;;;4.47;;
29240;SDS011;16268;49.880;8.648;2022-07-24T13:50:13;5.90;;;4.05;;
29240;SDS011;16268;49.880;8.648;2022-07-24T13:52:38;6.15;;;4.45;;
29240;SDS011;16268;49.880;8.648;2022-07-24T13:55:05;6.70;;;4.57;;
29240;SDS011;16268;49.880;8.648;2022-07-24T13:57:31;5.82;;;4.10;;
29240;SDS011;16268;49.880;8.648;2022-07-24T13:59:56;6.88;;;4.40;;
29240;SDS011;16268;49.880;8.648;2022-07-24T14:02:22;6.47;;;4.80;;
29240;SDS011;16268;49.880;8.648;2022-07-24T14:04:47;6.53;;;4.88;;
29240;SDS011;16268;49.880;8.648;2022-07-24T14:07:13;7.25;;;4.75;;
29240;SDS011;16268;49.880;8.648;2022-07-24T14:09:39;6.38;;;4.13;;
29240;SDS011;16268;49.880;8.648;2022-07-24T14:12:04;5.55;;;4.30;;
29240;SDS011;16268;49.880;8.648;2022-07-24T14:14:31;6.43;;;4.40;;
29240;SDS011;16268;49.880;8.648;2022-07-24T14:16:57;6.43;;;4.47;;
29240;SDS011;16268;49.880;8.648;2022-07-24T14:19:23;7.55;;;4.90;;
29240;SDS011;16268;49.880;8.648;2022-07-24T14:21:49;5.90;;;4.80;;
29240;SDS011;16268;49.880;8.648;2022-07-24T14:24:15;5.22;;;4.13;;
29240;SDS011;16268;49.880;8.648;2022-07-24T14:26:45;6.03;;;4.35;;
29240;SDS011;16268;49.880;8.648;2022-07-24T14:29:12;7.05;;;5.07;;
29240;SDS011;16268;49.880;8.648;2022-07-24T14:31:37;6.28;;;4.80;;
29240;SDS011;16268;49.880;8.648;2022-07-24T14:34:03;7.60;;;4.85;;
29240;SDS011;16268;49.880;8.648;2022-07-24T14:36:29;6.32;;;4.13;;
29240;SDS011;16268;49.880;8.648;2022-07-24T14:38:55;5.80;;;4.60;;
29240;SDS011;16268;49.880;8.648;2022-07-24T14:41:20;6.25;;;4.60;;
29240;SDS011;16268;49.880;8.648;2022-07-24T14:43:46;6.97;;;4.78;;
29240;SDS011;16268;49.880;8.648;2022-07-24T14:46:11;6.97;;;4.40;;
29240;SDS011;16268;49.880;8.648;2022-07-24T14:48:39;5.85;;;4.53;;
29240;SDS011;16268;49.880;8.648;2022-07-24T14:51:05;6.82;;;4.70;;
29240;SDS011;16268;49.880;8.648;2022-07-24T14:53:31;6.18;;;4.50;;
29240;SDS011;16268;49.880;8.648;2022-07-24T14:55:56;7.00;;;4.55;;
29240;SDS011;16268;49.880;8.648;2022-07-24T14:58:22;7.50;;;4.93;;
29240;SDS011;16268;49.880;8.648;2022-07-24T15:00:47;7.53;;;4.35;;
29240;SDS011;16268;49.880;8.648;2022-07-24T15:03:13;7.50;;;4.80;;
29240;SDS011;16268;49.880;8.648;2022-07-24T15:05:39;6.43;;;5.10;;
29240;SDS011;16268;49.880;8.648;2022-07-24T15:08:05;7.03;;;4.90;;
29240;SDS011;16268;49.880;8.648;2022-07-24T15:10:30;5.88;;;4.80;;
29240;SDS011;16268;49.880;8.648;2022-07-24T15:12:56;6.40;;;4.85;;
29240;SDS011;16268;49.880;8.648;2022-07-24T15:15:21;6.22;;;4.70;;
29240;SDS011;16268;49.880;8.648;2022-07-24T15:17:47;7.18;;;4.85;;
29240;SDS011;16268;49.880;8.648;2022-07-24T15:20:12;7.63;;;4.65;;
29240;SDS011;16268;49.880;8.648;2022-07-24T15:22:38;7.28;;;4.95;;
29240;SDS011;16268;49.880;8.648;2022-07-24T15:25:04;6.78;;;4.50;;
29240;SDS011;16268;49.880;8.648;2022-07-24T15:27:29;5.93;;;4.55;;
29240;SDS011;16268;49.880;8.648;2022-07-24T15:29:55;7.05;;;4.80;;
29240;SDS011;16268;49.880;8.648;2022-07-24T15:32:20;6.97;;;5.30;;
29240;SDS011;16268;49.880;8.648;2022-07-24T15:34:46;7.78;;;5.30;;